Time;durP1;ratioP1;P1;durP2;ratioP2;P2;SDS_P1;SDS_P2;PMS_P1;PMS_P2;Temp;Humidity;BMP_temperature;BMP_pressure;BME280_temperature;BME280_humidity;BME280_pressure;Samples;Min_cycle;Max_cycle;Signal;HPM_P1;HPM_P2
2021/06/16 00:01:39;;;;;;;;;;;21.50;99.90;;;;;;4978914;28;19969;-80
2021/06/16 00:04:06;;;;;;;;;;;21.40;99.90;;;;;;4978142;28;19926;-81
2021/06/16 00:06:34;;;;;;;;;;;21.30;99.90;;;;;;4977999;28;20425;-80
2021/06/16 00:09:01;;;;;;;;;;;21.20;99.90;;;;;;4977424;28;20042;-80
2021/06/16 00:11:27;;;;;;;;;;;21.20;99.90;;;;;;4979021;28;19926;-80
2021/06/16 00:13:54;;;;;;;;;;;21.20;99.90;;;;;;4978326;28;19926;-81
2021/06/16 00:16:21;;;;;;;;;;;21.30;99.90;;;;;;4979617;28;19926;-81
2021/06/16 00:18:47;;;;;;;;;;;21.20;99.90;;;;;;4979394;28;19922;-80
2021/06/16 00:21:14;;;;;;;;;;;21.20;99.90;;;;;;4978153;28;19926;-80
2021/06/16 00:23:43;;;;;;;;;;;21.20;99.90;;;;;;4978379;28;19972;-80
2021/06/16 00:26:10;;;;;;;;;;;21.10;99.90;;;;;;4978242;28;19922;-79
2021/06/16 00:28:37;;;;;;;;;;;21.10;99.90;;;;;;4978279;28;19926;-80
2021/06/16 00:31:03;;;;;;;;;;;21.10;99.90;;;;;;4979041;28;19922;-81
2021/06/16 00:33:30;;;;;;;;;;;21.10;99.90;;;;;;4980837;28;19953;-80
2021/06/16 00:35:57;;;;;;;;;;;21.10;99.90;;;;;;4980815;28;19965;-80
2021/06/16 00:38:24;;;;;;;;;;;21.00;99.90;;;;;;4981037;28;19922;-79
2021/06/16 00:40:52;;;;;;;;;;;20.90;99.90;;;;;;4981117;28;19961;-79
2021/06/16 00:43:19;;;;;;;;;;;20.80;99.90;;;;;;4979500;28;19988;-80
2021/06/16 00:45:45;;;;;;;;;;;20.70;99.90;;;;;;4978274;28;20001;-80
2021/06/16 00:48:12;;;;;;;;;;;20.70;99.90;;;;;;4977905;28;19945;-80
2021/06/16 00:50:39;;;;;;;;;;;20.70;99.90;;;;;;4978338;28;19969;-80
2021/06/16 00:53:07;;;;;;;;;;;20.70;99.90;;;;;;4978469;28;19929;-79
2021/06/16 00:55:37;;;;;;;;;;;20.70;99.90;;;;;;4978602;28;19969;-80
2021/06/16 00:58:06;;;;;;;;;;;20.60;99.90;;;;;;4981693;28;19922;-80
2021/06/16 01:00:35;;;;;;;;;;;20.60;99.90;;;;;;4981287;28;19969;-80
2021/06/16 01:03:04;;;;;;;;;;;20.40;99.90;;;;;;4981912;28;20016;-80
2021/06/16 01:05:37;;;;;;;;;;;20.40;99.90;;;;;;4982173;28;19969;-80
2021/06/16 01:08:05;;;;;;;;;;;20.40;99.90;;;;;;4982410;28;19980;-82
2021/06/16 01:10:34;;;;;;;;;;;20.30;99.90;;;;;;4983812;28;19964;-82
2021/06/16 01:13:03;;;;;;;;;;;20.30;99.90;;;;;;4983274;28;20013;-81
2021/06/16 01:15:38;;;;;;;;;;;20.30;99.90;;;;;;4984477;28;20009;-82
2021/06/16 01:18:05;;;;;;;;;;;20.30;99.90;;;;;;4985847;28;19953;-82
2021/06/16 01:20:33;;;;;;;;;;;20.30;99.90;;;;;;4985612;28;19928;-82
2021/06/16 01:23:04;;;;;;;;;;;20.30;99.90;;;;;;4986052;28;19949;-81
2021/06/16 01:25:34;;;;;;;;;;;20.30;99.90;;;;;;4986655;28;19977;-81
2021/06/16 01:28:03;;;;;;;;;;;20.20;99.90;;;;;;4989687;28;19957;-84
2021/06/16 01:30:31;;;;;;;;;;;20.20;99.90;;;;;;4986901;28;20020;-84
2021/06/16 01:32:58;;;;;;;;;;;20.30;99.90;;;;;;4982678;28;19960;-83
2021/06/16 01:35:26;;;;;;;;;;;20.30;99.90;;;;;;4984006;28;20370;-80
2021/06/16 01:37:53;;;;;;;;;;;20.30;99.90;;;;;;4983183;28;19994;-81
2021/06/16 01:40:21;;;;;;;;;;;20.30;99.90;;;;;;4983395;28;19922;-80
2021/06/16 01:42:49;;;;;;;;;;;20.30;99.90;;;;;;4982610;28;19925;-82
2021/06/16 01:45:18;;;;;;;;;;;20.40;99.90;;;;;;4983699;28;19976;-82
2021/06/16 01:47:45;;;;;;;;;;;20.40;99.90;;;;;;4983201;28;19994;-81
2021/06/16 01:50:13;;;;;;;;;;;20.50;99.90;;;;;;4982304;28;19922;-84
2021/06/16 01:52:40;;;;;;;;;;;20.50;99.90;;;;;;4982122;28;19957;-82
2021/06/16 01:55:08;;;;;;;;;;;20.50;99.90;;;;;;4981067;28;19989;-80
2021/06/16 01:57:37;;;;;;;;;;;20.50;99.90;;;;;;4980712;28;19921;-80
2021/06/16 02:00:04;;;;;;;;;;;20.40;99.90;;;;;;4980883;28;19941;-80
2021/06/16 02:02:32;;;;;;;;;;;20.40;99.90;;;;;;4981672;28;19954;-81
2021/06/16 02:04:59;;;;;;;;;;;20.40;99.90;;;;;;4982057;28;19985;-80
2021/06/16 02:07:28;;;;;;;;;;;20.40;99.90;;;;;;4982620;28;19973;-81
2021/06/16 02:09:55;;;;;;;;;;;20.30;99.90;;;;;;4982997;28;19987;-80
2021/06/16 02:12:22;;;;;;;;;;;20.30;99.90;;;;;;4982806;28;19922;-81
2021/06/16 02:14:50;;;;;;;;;;;20.30;99.90;;;;;;4982141;28;20110;-81
2021/06/16 02:17:18;;;;;;;;;;;20.30;99.90;;;;;;4982216;28;19957;-80
2021/06/16 02:19:46;;;;;;;;;;;20.30;99.90;;;;;;4982541;28;19945;-82
2021/06/16 02:22:14;;;;;;;;;;;20.20;99.90;;;;;;4982305;28;20008;-81
2021/06/16 02:24:40;;;;;;;;;;;20.20;99.90;;;;;;4981750;28;19921;-81
2021/06/16 02:27:07;;;;;;;;;;;20.10;99.90;;;;;;4992767;23;20009;-78
2021/06/16 02:29:34;;;;;;;;;;;19.90;99.90;;;;;;4960115;29;19922;-78
2021/06/16 02:32:01;;;;;;;;;;;19.70;99.90;;;;;;4963186;29;19976;-79
2021/06/16 02:34:28;;;;;;;;;;;19.70;99.90;;;;;;4963390;29;19934;-78
2021/06/16 02:36:58;;;;;;;;;;;19.70;99.90;;;;;;4960756;28;19977;-78
2021/06/16 02:39:28;;;;;;;;;;;19.70;99.90;;;;;;4962531;29;19978;-79
2021/06/16 02:41:55;;;;;;;;;;;19.60;99.90;;;;;;4964407;29;19969;-79
2021/06/16 02:44:23;;;;;;;;;;;19.70;99.90;;;;;;4965646;28;20017;-79
2021/06/16 02:46:51;;;;;;;;;;;19.80;99.90;;;;;;4968036;29;20382;-80
2021/06/16 02:49:18;;;;;;;;;;;19.80;99.90;;;;;;4966731;28;19970;-80
2021/06/16 02:51:45;;;;;;;;;;;19.80;99.90;;;;;;4966456;29;20379;-79
2021/06/16 02:54:17;;;;;;;;;;;19.60;99.90;;;;;;4961682;28;19929;-79
2021/06/16 02:56:44;;;;;;;;;;;19.50;99.90;;;;;;4961289;28;19929;-79
2021/06/16 02:59:12;;;;;;;;;;;19.60;99.90;;;;;;4961828;28;19923;-80
2021/06/16 03:01:39;;;;;;;;;;;19.60;99.90;;;;;;4961912;28;20053;-80
2021/06/16 03:04:06;;;;;;;;;;;19.60;99.90;;;;;;4961100;28;20370;-78
2021/06/16 03:06:33;;;;;;;;;;;19.60;99.90;;;;;;4960114;29;19986;-78
2021/06/16 03:09:01;;;;;;;;;;;19.60;99.90;;;;;;4960055;28;19982;-78
2021/06/16 03:11:30;;;;;;;;;;;19.60;99.90;;;;;;4964783;28;19922;-77
2021/06/16 03:13:57;;;;;;;;;;;19.70;99.90;;;;;;4959790;28;20013;-78
2021/06/16 03:16:24;;;;;;;;;;;19.70;99.90;;;;;;4962506;28;19969;-78
2021/06/16 03:18:51;;;;;;;;;;;19.80;99.90;;;;;;4960241;28;19923;-78
2021/06/16 03:21:18;;;;;;;;;;;19.80;99.90;;;;;;4958904;28;19922;-78
2021/06/16 03:23:46;;;;;;;;;;;19.80;99.90;;;;;;4957904;29;20018;-78
2021/06/16 03:26:14;;;;;;;;;;;19.80;99.90;;;;;;4961544;28;20383;-78
2021/06/16 03:28:42;;;;;;;;;;;19.80;99.90;;;;;;4958526;28;20024;-78
2021/06/16 03:31:09;;;;;;;;;;;19.80;99.90;;;;;;4960134;28;20403;-78
2021/06/16 03:33:35;;;;;;;;;;;19.70;99.90;;;;;;4961214;28;19946;-79
2021/06/16 03:36:02;;;;;;;;;;;19.70;99.90;;;;;;4960096;28;19926;-78
2021/06/16 03:38:30;;;;;;;;;;;19.80;99.90;;;;;;4959408;29;20021;-77
2021/06/16 03:40:58;;;;;;;;;;;19.80;99.90;;;;;;4959689;28;19973;-78
2021/06/16 03:43:25;;;;;;;;;;;19.80;99.90;;;;;;4960416;28;20009;-79
2021/06/16 03:45:53;;;;;;;;;;;19.70;99.90;;;;;;4963805;28;19922;-79
2021/06/16 03:48:22;;;;;;;;;;;19.70;99.90;;;;;;4964604;29;19984;-79
2021/06/16 03:50:50;;;;;;;;;;;19.80;99.90;;;;;;4965453;29;19929;-79
2021/06/16 03:53:17;;;;;;;;;;;19.90;99.90;;;;;;4963461;29;19972;-79
2021/06/16 03:55:45;;;;;;;;;;;20.00;99.90;;;;;;4959966;28;20037;-78
2021/06/16 03:58:12;;;;;;;;;;;20.00;99.90;;;;;;4958847;29;20379;-79
2021/06/16 04:00:39;;;;;;;;;;;20.10;99.90;;;;;;4959060;29;19969;-79
2021/06/16 04:03:08;;;;;;;;;;;20.10;99.90;;;;;;4959437;28;20446;-80
2021/06/16 04:05:36;;;;;;;;;;;20.20;99.90;;;;;;4961794;28;19978;-79
2021/06/16 04:08:03;;;;;;;;;;;20.30;99.90;;;;;;4962252;29;19929;-79
2021/06/16 04:10:30;;;;;;;;;;;20.20;99.90;;;;;;4964417;28;19922;-79
2021/06/16 04:12:57;;;;;;;;;;;20.30;99.90;;;;;;4963084;28;19973;-80
2021/06/16 04:15:24;;;;;;;;;;;20.30;99.90;;;;;;4958909;29;20001;-79
2021/06/16 04:17:52;;;;;;;;;;;20.20;99.90;;;;;;4959890;29;20380;-80
2021/06/16 04:20:20;;;;;;;;;;;20.20;99.90;;;;;;4959510;29;19922;-80
2021/06/16 04:22:47;;;;;;;;;;;20.30;99.90;;;;;;4959143;28;19973;-80
2021/06/16 04:25:14;;;;;;;;;;;20.40;99.90;;;;;;4958478;28;19966;-80
2021/06/16 04:27:41;;;;;;;;;;;20.50;99.90;;;;;;4958807;28;19984;-80
2021/06/16 04:30:09;;;;;;;;;;;20.70;99.90;;;;;;4959672;28;19922;-80
2021/06/16 04:32:36;;;;;;;;;;;20.90;99.90;;;;;;4967181;28;19969;-80
2021/06/16 04:35:03;;;;;;;;;;;21.20;99.90;;;;;;4967306;28;19981;-80
2021/06/16 04:37:31;;;;;;;;;;;21.60;99.90;;;;;;4965773;28;19986;-80
2021/06/16 04:39:57;;;;;;;;;;;21.90;99.90;;;;;;4967146;28;20378;-80
2021/06/16 04:42:24;;;;;;;;;;;22.00;99.90;;;;;;4966777;28;20073;-79
2021/06/16 04:44:51;;;;;;;;;;;22.10;99.90;;;;;;4965654;29;19927;-81
2021/06/16 04:47:17;;;;;;;;;;;22.20;99.90;;;;;;4962349;29;20016;-79
2021/06/16 04:49:45;;;;;;;;;;;22.20;99.90;;;;;;4962409;29;19973;-79
2021/06/16 04:52:11;;;;;;;;;;;22.20;99.90;;;;;;4962932;28;19926;-78
2021/06/16 04:54:39;;;;;;;;;;;22.20;99.90;;;;;;4962638;28;20029;-78
2021/06/16 04:57:07;;;;;;;;;;;22.30;99.90;;;;;;4964356;29;19968;-79
2021/06/16 04:59:34;;;;;;;;;;;22.30;99.90;;;;;;4964963;29;19950;-79
2021/06/16 05:02:00;;;;;;;;;;;22.20;99.90;;;;;;4964085;28;19930;-79
2021/06/16 05:04:27;;;;;;;;;;;22.30;99.90;;;;;;4961987;28;19950;-79
2021/06/16 05:06:54;;;;;;;;;;;22.50;99.90;;;;;;4961145;28;20059;-77
2021/06/16 05:09:21;;;;;;;;;;;22.70;99.90;;;;;;4961585;29;19926;-78
2021/06/16 05:11:49;;;;;;;;;;;23.00;99.90;;;;;;4960159;29;20013;-78
2021/06/16 05:14:16;;;;;;;;;;;23.10;99.90;;;;;;4960042;29;20021;-78
2021/06/16 05:16:42;;;;;;;;;;;23.20;99.90;;;;;;4959441;29;19968;-79
2021/06/16 05:19:15;;;;;;;;;;;23.30;99.90;;;;;;4960742;28;19923;-80
2021/06/16 05:21:42;;;;;;;;;;;23.50;99.90;;;;;;4962327;28;19922;-80
2021/06/16 05:24:09;;;;;;;;;;;23.80;99.90;;;;;;4961352;29;19922;-79
2021/06/16 05:26:36;;;;;;;;;;;24.10;99.90;;;;;;4962237;28;20361;-77
2021/06/16 05:29:04;;;;;;;;;;;24.40;99.90;;;;;;4962265;29;20010;-77
2021/06/16 05:31:31;;;;;;;;;;;24.90;99.90;;;;;;4977693;28;19926;-79
2021/06/16 05:33:58;;;;;;;;;;;25.40;99.90;;;;;;4979677;29;20335;-78
2021/06/16 05:36:25;;;;;;;;;;;25.60;99.90;;;;;;4978660;28;19922;-78
2021/06/16 05:38:52;;;;;;;;;;;25.50;99.90;;;;;;4977992;28;19937;-77
2021/06/16 05:41:18;;;;;;;;;;;25.60;99.90;;;;;;4973044;28;19923;-79
2021/06/16 05:43:45;;;;;;;;;;;25.60;99.90;;;;;;4962470;28;20336;-79
2021/06/16 05:46:13;;;;;;;;;;;25.30;99.90;;;;;;4961733;28;19922;-80
2021/06/16 05:48:40;;;;;;;;;;;25.10;99.90;;;;;;4961609;29;20010;-79
2021/06/16 05:51:06;;;;;;;;;;;25.10;99.90;;;;;;4962327;28;19969;-79
2021/06/16 05:53:33;;;;;;;;;;;25.00;99.90;;;;;;4962943;28;20017;-80
2021/06/16 05:56:00;;;;;;;;;;;25.10;99.90;;;;;;4962945;28;20055;-80
2021/06/16 05:58:26;;;;;;;;;;;25.30;99.90;;;;;;4962500;28;19954;-82
2021/06/16 06:00:53;;;;;;;;;;;25.60;99.90;;;;;;4959993;28;19973;-80
2021/06/16 06:03:21;;;;;;;;;;;26.00;99.90;;;;;;4960235;28;19973;-82
2021/06/16 06:05:48;;;;;;;;;;;26.30;99.90;;;;;;4960463;29;19989;-81
2021/06/16 06:08:14;;;;;;;;;;;26.70;99.90;;;;;;4959867;29;19980;-79
2021/06/16 06:10:41;;;;;;;;;;;27.30;99.90;;;;;;4959204;29;19922;-80
2021/06/16 06:13:08;;;;;;;;;;;27.60;99.90;;;;;;4959171;29;20052;-80
2021/06/16 06:15:34;;;;;;;;;;;28.00;99.90;;;;;;4959739;28;19950;-80
2021/06/16 06:18:01;;;;;;;;;;;28.30;99.90;;;;;;4960317;29;20414;-79
2021/06/16 06:20:29;;;;;;;;;;;28.70;99.90;;;;;;4959496;29;20275;-80
2021/06/16 06:22:56;;;;;;;;;;;29.00;99.90;;;;;;4957360;29;19964;-79
2021/06/16 06:25:23;;;;;;;;;;;29.00;99.90;;;;;;4959765;28;20051;-81
2021/06/16 06:27:50;;;;;;;;;;;28.80;99.90;;;;;;4957723;29;20005;-78
2021/06/16 06:30:17;;;;;;;;;;;28.80;99.90;;;;;;4952164;29;20040;-81
2021/06/16 06:32:43;;;;;;;;;;;28.70;99.90;;;;;;4949480;28;20011;-80
2021/06/16 06:35:11;;;;;;;;;;;28.90;99.90;;;;;;4950903;29;19922;-78
2021/06/16 06:37:39;;;;;;;;;;;28.60;99.90;;;;;;4952062;28;20334;-80
2021/06/16 06:40:06;;;;;;;;;;;28.90;99.90;;;;;;4950107;29;19966;-80
2021/06/16 06:42:33;;;;;;;;;;;29.10;99.90;;;;;;4950452;29;19985;-77
2021/06/16 06:44:59;;;;;;;;;;;29.30;99.90;;;;;;4951588;29;19968;-78
2021/06/16 06:47:26;;;;;;;;;;;29.50;99.90;;;;;;4950664;29;19980;-80
2021/06/16 06:49:53;;;;;;;;;;;29.70;99.90;;;;;;4951268;28;19982;-78
2021/06/16 06:52:20;;;;;;;;;;;29.60;99.90;;;;;;4953978;28;19926;-79
2021/06/16 06:54:48;;;;;;;;;;;29.40;99.90;;;;;;4953415;28;19986;-79
2021/06/16 06:57:15;;;;;;;;;;;29.20;99.90;;;;;;4955596;29;20057;-79
2021/06/16 06:59:41;;;;;;;;;;;29.50;99.90;;;;;;4964183;29;20396;-77
2021/06/16 07:02:08;;;;;;;;;;;29.80;99.90;;;;;;4959913;28;20352;-78
2021/06/16 07:04:35;;;;;;;;;;;29.70;99.90;;;;;;4954184;29;19968;-79
2021/06/16 07:07:02;;;;;;;;;;;30.00;99.90;;;;;;4961844;29;20069;-80
2021/06/16 07:09:29;;;;;;;;;;;30.20;99.90;;;;;;4960474;28;20415;-80
2021/06/16 07:11:56;;;;;;;;;;;30.50;99.90;;;;;;4953359;28;20348;-81
2021/06/16 07:14:23;;;;;;;;;;;30.70;99.90;;;;;;4964636;28;19957;-81
2021/06/16 07:16:50;;;;;;;;;;;30.90;99.90;;;;;;4963414;28;20009;-80
2021/06/16 07:19:17;;;;;;;;;;;30.50;99.90;;;;;;4962920;29;19993;-80
2021/06/16 07:21:43;;;;;;;;;;;30.60;99.90;;;;;;4963044;28;19957;-80
2021/06/16 07:24:11;;;;;;;;;;;30.80;99.90;;;;;;4961019;29;20018;-77
2021/06/16 07:26:37;;;;;;;;;;;30.30;99.90;;;;;;4960546;28;19923;-81
2021/06/16 07:29:05;;;;;;;;;;;30.20;99.90;;;;;;4961472;29;19962;-80
2021/06/16 07:31:32;;;;;;;;;;;30.20;99.90;;;;;;4961617;28;20429;-77
2021/06/16 07:33:59;;;;;;;;;;;30.20;99.90;;;;;;4960883;28;19965;-80
2021/06/16 07:36:25;;;;;;;;;;;30.00;99.90;;;;;;4960992;28;19961;-80
2021/06/16 07:38:52;;;;;;;;;;;29.90;99.90;;;;;;4961071;28;20017;-80
2021/06/16 07:41:19;;;;;;;;;;;29.80;99.90;;;;;;4961386;29;19962;-80
2021/06/16 07:43:45;;;;;;;;;;;29.80;99.90;;;;;;4960399;29;20016;-80
2021/06/16 07:46:13;;;;;;;;;;;29.70;99.90;;;;;;4960999;28;19958;-78
2021/06/16 07:48:40;;;;;;;;;;;29.50;99.90;;;;;;4961506;28;19922;-78
2021/06/16 07:51:07;;;;;;;;;;;29.60;99.90;;;;;;4961587;28;19966;-80
2021/06/16 07:53:33;;;;;;;;;;;29.80;99.90;;;;;;4960543;29;19929;-79
2021/06/16 07:56:00;;;;;;;;;;;30.00;99.90;;;;;;4960442;28;20008;-79
2021/06/16 07:58:27;;;;;;;;;;;30.00;99.90;;;;;;4963379;29;20014;-78
2021/06/16 08:00:54;;;;;;;;;;;30.20;99.90;;;;;;4963922;29;20032;-78
2021/06/16 08:03:22;;;;;;;;;;;29.90;99.90;;;;;;4964824;28;20017;-78
2021/06/16 08:05:50;;;;;;;;;;;29.90;99.90;;;;;;4965988;28;19957;-80
2021/06/16 08:08:17;;;;;;;;;;;29.30;99.90;;;;;;4969855;29;19922;-79
2021/06/16 08:10:44;;;;;;;;;;;29.40;99.90;;;;;;4964443;28;19962;-81
2021/06/16 08:13:10;;;;;;;;;;;29.70;99.90;;;;;;4962651;28;20114;-79
2021/06/16 08:15:37;;;;;;;;;;;29.90;99.90;;;;;;4963047;28;20343;-79
2021/06/16 08:18:04;;;;;;;;;;;29.80;99.90;;;;;;4963328;29;20299;-81
2021/06/16 08:20:32;;;;;;;;;;;30.30;99.90;;;;;;4962142;28;19938;-79
2021/06/16 08:22:59;;;;;;;;;;;30.20;99.90;;;;;;4963541;28;20021;-81
2021/06/16 08:25:26;;;;;;;;;;;30.20;99.90;;;;;;4963973;29;20008;-81
2021/06/16 08:27:54;;;;;;;;;;;29.90;99.90;;;;;;4976296;23;19977;-86
2021/06/16 08:30:23;;;;;;;;;;;30.10;99.90;;;;;;4947706;29;19923;-80
2021/06/16 08:32:52;;;;;;;;;;;30.30;99.90;;;;;;4945374;29;20009;-80
2021/06/16 08:35:19;;;;;;;;;;;30.10;99.90;;;;;;4944618;29;19929;-81
2021/06/16 08:37:49;;;;;;;;;;;30.20;99.90;;;;;;4948494;29;19923;-82
2021/06/16 08:40:16;;;;;;;;;;;30.00;99.90;;;;;;4946656;29;20301;-82
2021/06/16 08:42:44;;;;;;;;;;;29.80;99.90;;;;;;4944914;29;19923;-79
2021/06/16 08:45:13;;;;;;;;;;;30.00;99.90;;;;;;4945783;29;20020;-78
2021/06/16 08:47:41;;;;;;;;;;;29.90;99.90;;;;;;4943835;29;20067;-81
2021/06/16 08:50:10;;;;;;;;;;;30.40;99.90;;;;;;4946031;29;19922;-82
2021/06/16 08:52:37;;;;;;;;;;;30.60;99.90;;;;;;4946046;29;19922;-81
2021/06/16 08:55:06;;;;;;;;;;;30.50;99.90;;;;;;4945972;29;20391;-80
2021/06/16 08:57:35;;;;;;;;;;;30.70;99.90;;;;;;4948092;29;19973;-82
2021/06/16 09:00:03;;;;;;;;;;;30.80;99.90;;;;;;4947105;29;20356;-80
2021/06/16 09:02:30;;;;;;;;;;;31.00;99.90;;;;;;4947564;29;20299;-82
2021/06/16 09:05:07;;;;;;;;;;;30.80;99.90;;;;;;4947439;29;20372;-82
2021/06/16 09:07:47;;;;;;;;;;;30.50;99.90;;;;;;4945580;29;19946;-80
2021/06/16 09:10:18;;;;;;;;;;;30.80;99.90;;;;;;4946981;29;19986;-82
2021/06/16 09:12:55;;;;;;;;;;;31.20;99.90;;;;;;4947978;29;20352;-83
2021/06/16 09:15:23;;;;;;;;;;;30.70;99.90;;;;;;4948430;29;19923;-82
2021/06/16 09:18:02;;;;;;;;;;;30.50;99.90;;;;;;4947118;29;19922;-82
2021/06/16 09:20:33;;;;;;;;;;;30.50;99.90;;;;;;4945261;29;20414;-81
2021/06/16 09:23:11;;;;;;;;;;;30.90;99.90;;;;;;4940933;29;19933;-79
2021/06/16 09:25:45;;;;;;;;;;;31.10;99.90;;;;;;4941850;29;20013;-81
2021/06/16 09:28:15;;;;;;;;;;;31.20;99.90;;;;;;4945597;29;20006;-83
2021/06/16 09:30:48;;;;;;;;;;;31.40;99.90;;;;;;4949926;29;19923;-86
2021/06/16 09:33:16;;;;;;;;;;;31.10;99.90;;;;;;4949485;29;20022;-81
2021/06/16 09:35:49;;;;;;;;;;;31.20;99.90;;;;;;4950262;29;19933;-83
2021/06/16 09:38:23;;;;;;;;;;;31.50;99.90;;;;;;4948758;29;19954;-82
2021/06/16 09:40:51;;;;;;;;;;;31.60;99.90;;;;;;4948053;29;20344;-82
2021/06/16 09:43:20;;;;;;;;;;;31.50;99.90;;;;;;4949014;29;20261;-83
2021/06/16 09:45:52;;;;;;;;;;;31.90;99.90;;;;;;4949659;29;19923;-81
2021/06/16 09:48:27;;;;;;;;;;;32.00;99.90;;;;;;4951647;29;19923;-80
2021/06/16 09:51:00;;;;;;;;;;;32.30;99.90;;;;;;4950853;29;19929;-82
2021/06/16 09:53:32;;;;;;;;;;;32.60;99.90;;;;;;4950266;29;19929;-82
2021/06/16 09:56:20;;;;;;;;;;;33.00;99.90;;;;;;4945626;29;19981;-84
2021/06/16 09:58:47;;;;;;;;;;;33.20;99.90;;;;;;4948231;29;20399;-80
2021/06/16 10:01:14;;;;;;;;;;;32.90;99.90;;;;;;4945287;29;19923;-79
2021/06/16 10:03:42;;;;;;;;;;;32.40;99.90;;;;;;4945083;29;19950;-81
2021/06/16 10:06:13;;;;;;;;;;;32.00;99.90;;;;;;4945252;29;19926;-80
2021/06/16 10:08:51;;;;;;;;;;;31.90;99.90;;;;;;4944154;29;19933;-83
2021/06/16 10:11:20;;;;;;;;;;;31.60;99.90;;;;;;4945239;29;19946;-80
2021/06/16 10:13:47;;;;;;;;;;;31.30;99.90;;;;;;4943603;29;20076;-81
2021/06/16 10:16:16;;;;;;;;;;;31.00;99.90;;;;;;4946116;29;19923;-82
2021/06/16 10:18:44;;;;;;;;;;;31.10;99.90;;;;;;4946365;29;20002;-81
2021/06/16 10:21:11;;;;;;;;;;;30.90;99.90;;;;;;4946213;29;19923;-80
2021/06/16 10:23:40;;;;;;;;;;;30.60;99.90;;;;;;4947468;29;20028;-81
2021/06/16 10:26:12;;;;;;;;;;;30.80;99.90;;;;;;4948751;29;19923;-82
2021/06/16 10:28:42;;;;;;;;;;;30.90;99.90;;;;;;4948883;29;19950;-82
2021/06/16 10:31:16;;;;;;;;;;;31.00;99.90;;;;;;4945877;29;19926;-84
2021/06/16 10:34:18;;;;;;;;;;;30.70;99.90;;;;;;4946088;29;19923;-82
2021/06/16 10:37:04;;;;;;;;;;;30.80;99.90;;;;;;4946227;29;19950;-85
2021/06/16 10:39:49;;;;;;;;;;;30.90;99.90;;;;;;4946487;29;19922;-81
2021/06/16 10:42:19;;;;;;;;;;;31.00;99.90;;;;;;4944324;29;19923;-83
2021/06/16 10:45:17;;;;;;;;;;;30.80;99.90;;;;;;4945255;29;19922;-82
2021/06/16 10:48:05;;;;;;;;;;;30.40;99.90;;;;;;4944516;29;19938;-80
2021/06/16 10:50:47;;;;;;;;;;;30.30;99.90;;;;;;4944726;29;20308;-79
2021/06/16 10:53:16;;;;;;;;;;;30.40;99.90;;;;;;4943911;29;19986;-82
2021/06/16 10:56:05;;;;;;;;;;;30.50;99.90;;;;;;4945180;29;19923;-80
2021/06/16 10:58:43;;;;;;;;;;;30.80;99.90;;;;;;4946712;29;19930;-83
2021/06/16 11:04:12;;;;;;;;;;;31.10;99.90;;;;;;4942073;29;19926;-81
2021/06/16 11:06:49;;;;;;;;;;;31.20;99.90;;;;;;4945127;29;20002;-82
2021/06/16 11:12:16;;;;;;;;;;;31.00;99.90;;;;;;4946927;29;19950;-81
2021/06/16 11:14:52;;;;;;;;;;;31.20;99.90;;;;;;4945309;29;19929;-80
2021/06/16 11:17:38;;;;;;;;;;;31.30;99.90;;;;;;4947205;29;19923;-83
2021/06/16 11:20:14;;;;;;;;;;;31.50;99.90;;;;;;4946301;29;19950;-80
2021/06/16 11:23:14;;;;;;;;;;;31.60;99.90;;;;;;4945862;29;19923;-81
2021/06/16 11:25:57;;;;;;;;;;;31.70;99.90;;;;;;4943831;29;20021;-81
2021/06/16 11:28:54;;;;;;;;;;;31.90;99.90;;;;;;4944702;29;19923;-82
2021/06/16 11:31:46;;;;;;;;;;;32.10;99.90;;;;;;4944240;29;19922;-81
2021/06/16 11:37:45;;;;;;;;;;;32.20;99.90;;;;;;4943202;29;20026;-79
2021/06/16 11:40:22;;;;;;;;;;;31.90;99.90;;;;;;4945219;29;19927;-81
2021/06/16 11:42:53;;;;;;;;;;;32.00;99.90;;;;;;4944820;29;19937;-82
2021/06/16 11:45:26;;;;;;;;;;;32.00;99.90;;;;;;4944535;29;19944;-81
2021/06/16 11:47:57;;;;;;;;;;;32.00;99.90;;;;;;4943526;29;19922;-79
2021/06/16 11:50:41;;;;;;;;;;;32.30;99.90;;;;;;4943890;29;19950;-81
2021/06/16 11:53:12;;;;;;;;;;;32.50;99.90;;;;;;4943707;29;19923;-83
2021/06/16 11:55:52;;;;;;;;;;;32.50;99.90;;;;;;4944229;29;19937;-82
2021/06/16 11:58:27;;;;;;;;;;;32.30;99.90;;;;;;4943915;29;20342;-83
2021/06/16 12:01:04;;;;;;;;;;;32.20;99.90;;;;;;4944279;29;20190;-80
2021/06/16 12:03:36;;;;;;;;;;;32.10;99.90;;;;;;4943637;29;19923;-82
2021/06/16 12:06:12;;;;;;;;;;;32.20;99.90;;;;;;4947408;29;20327;-81
2021/06/16 12:08:40;;;;;;;;;;;32.40;99.90;;;;;;4945012;29;19938;-83
2021/06/16 12:11:21;;;;;;;;;;;32.50;99.90;;;;;;4945480;29;19970;-81
2021/06/16 12:13:58;;;;;;;;;;;32.70;99.90;;;;;;4944246;29;19929;-81
2021/06/16 12:16:44;;;;;;;;;;;32.90;99.90;;;;;;4946102;29;19922;-79
2021/06/16 12:19:14;;;;;;;;;;;33.00;99.90;;;;;;4945708;29;20002;-82
2021/06/16 12:21:58;;;;;;;;;;;33.10;99.90;;;;;;4947268;29;19922;-79
2021/06/16 12:24:31;;;;;;;;;;;33.00;99.90;;;;;;4946541;29;19978;-80
2021/06/16 12:30:22;;;;;;;;;;;33.40;99.90;;;;;;4944598;29;19974;-80
2021/06/16 12:36:06;;;;;;;;;;;33.70;99.90;;;;;;4946545;29;19930;-82
2021/06/16 12:38:41;;;;;;;;;;;33.60;99.90;;;;;;4947188;29;19929;-82
2021/06/16 12:41:41;;;;;;;;;;;33.40;99.90;;;;;;4946821;29;19926;-83
2021/06/16 12:44:33;;;;;;;;;;;33.00;99.90;;;;;;4948618;29;19922;-81
2021/06/16 12:47:03;;;;;;;;;;;32.90;99.90;;;;;;4947716;29;19927;-81
2021/06/16 12:49:37;;;;;;;;;;;32.80;99.90;;;;;;4947801;29;19933;-82
2021/06/16 12:52:05;;;;;;;;;;;32.80;99.90;;;;;;4948875;29;20380;-82
2021/06/16 12:57:46;;;;;;;;;;;32.80;99.90;;;;;;4940881;29;19938;-83
2021/06/16 13:00:20;;;;;;;;;;;32.90;99.90;;;;;;4950507;29;19923;-82
2021/06/16 13:02:50;;;;;;;;;;;33.10;99.90;;;;;;4949784;29;19933;-81
2021/06/16 13:05:31;;;;;;;;;;;33.20;99.70;;;;;;4950019;29;19934;-82
2021/06/16 13:08:01;;;;;;;;;;;33.30;99.90;;;;;;4953064;29;19923;-83
2021/06/16 13:10:36;;;;;;;;;;;33.40;99.90;;;;;;4951299;29;19972;-81
2021/06/16 13:13:04;;;;;;;;;;;33.70;99.90;;;;;;4948098;29;19930;-82
2021/06/16 13:15:46;;;;;;;;;;;33.80;99.30;;;;;;4951971;29;19923;-82
2021/06/16 13:18:25;;;;;;;;;;;33.60;99.60;;;;;;4953124;29;19923;-82
2021/06/16 13:20:53;;;;;;;;;;;33.60;99.20;;;;;;4950957;29;20319;-81
2021/06/16 13:23:38;;;;;;;;;;;33.60;99.30;;;;;;4946453;29;19934;-81
2021/06/16 13:26:12;;;;;;;;;;;33.60;99.00;;;;;;4947793;29;19922;-80
2021/06/16 13:29:00;;;;;;;;;;;33.60;98.30;;;;;;4948384;29;19930;-82
2021/06/16 13:31:35;;;;;;;;;;;33.60;98.20;;;;;;4948290;29;19926;-83
2021/06/16 13:34:10;;;;;;;;;;;33.60;96.50;;;;;;4948901;29;20024;-82
2021/06/16 13:36:42;;;;;;;;;;;33.60;95.80;;;;;;4950341;29;19923;-82
2021/06/16 13:39:12;;;;;;;;;;;33.50;96.40;;;;;;4948888;29;19922;-82
2021/06/16 13:41:39;;;;;;;;;;;33.70;96.90;;;;;;4951091;29;19923;-83
2021/06/16 13:44:06;;;;;;;;;;;33.80;96.20;;;;;;4950707;29;19930;-82
2021/06/16 13:46:39;;;;;;;;;;;33.90;97.00;;;;;;4949610;29;19933;-81
2021/06/16 13:49:11;;;;;;;;;;;34.00;96.50;;;;;;4950118;29;19934;-81
2021/06/16 13:51:38;;;;;;;;;;;34.30;95.30;;;;;;4947976;29;19922;-82
2021/06/16 13:54:05;;;;;;;;;;;34.40;95.60;;;;;;4946593;29;19922;-82
2021/06/16 13:56:32;;;;;;;;;;;34.50;95.80;;;;;;4947530;29;19922;-83
2021/06/16 13:58:59;;;;;;;;;;;34.60;94.80;;;;;;4946967;29;19922;-82
2021/06/16 14:01:25;;;;;;;;;;;34.60;95.20;;;;;;4947867;29;19922;-82
2021/06/16 14:03:54;;;;;;;;;;;34.60;94.80;;;;;;4946563;29;19922;-80
2021/06/16 14:06:21;;;;;;;;;;;34.70;95.50;;;;;;4947443;29;20394;-82
2021/06/16 14:08:48;;;;;;;;;;;34.70;94.10;;;;;;4946586;29;19923;-82
2021/06/16 14:11:15;;;;;;;;;;;34.80;93.40;;;;;;4947523;29;19965;-81
2021/06/16 14:13:42;;;;;;;;;;;34.80;94.10;;;;;;4946711;29;20443;-83
2021/06/16 14:16:09;;;;;;;;;;;34.80;93.40;;;;;;4948023;29;19934;-82
2021/06/16 14:18:35;;;;;;;;;;;34.80;93.50;;;;;;4947370;29;19923;-83
2021/06/16 14:21:04;;;;;;;;;;;34.80;92.50;;;;;;4946325;29;19923;-83
2021/06/16 14:23:30;;;;;;;;;;;34.80;92.80;;;;;;4945778;29;19926;-82
2021/06/16 14:25:58;;;;;;;;;;;34.70;93.80;;;;;;4946191;29;20253;-83
2021/06/16 14:28:26;;;;;;;;;;;34.80;93.10;;;;;;4985665;23;19923;-80
2021/06/16 14:30:52;;;;;;;;;;;34.80;93.00;;;;;;4966694;28;19991;-79
2021/06/16 14:33:19;;;;;;;;;;;34.70;93.40;;;;;;4966608;29;19932;-80
2021/06/16 14:35:47;;;;;;;;;;;34.70;94.10;;;;;;4967340;29;19930;-79
2021/06/16 14:38:15;;;;;;;;;;;34.70;93.90;;;;;;4966764;29;19990;-81
2021/06/16 14:40:45;;;;;;;;;;;34.70;93.20;;;;;;4966221;28;19970;-80
2021/06/16 14:43:11;;;;;;;;;;;34.60;93.50;;;;;;4965122;28;20134;-80
2021/06/16 14:45:38;;;;;;;;;;;34.50;92.40;;;;;;4963973;28;20017;-79
2021/06/16 14:48:05;;;;;;;;;;;34.20;92.60;;;;;;4965387;28;19935;-80
2021/06/16 14:50:32;;;;;;;;;;;34.00;92.40;;;;;;4966830;28;19984;-80